sensor_id;sensor_type;location;lat;lon;timestamp;temperature;humidity
52459;DHT22;38372;52.902;6.024;2023-12-29T00:01:56;10.10;99.90
52459;DHT22;38372;52.902;6.024;2023-12-29T00:04:22;10.10;99.90
52459;DHT22;38372;52.902;6.024;2023-12-29T00:06:48;10.10;99.90
52459;DHT22;38372;52.902;6.024;2023-12-29T00:09:17;10.10;99.90
52459;DHT22;38372;52.902;6.024;2023-12-29T00:11:50;10.10;99.90
52459;DHT22;38372;52.902;6.024;2023-12-29T00:14:16;10.10;99.90
52459;DHT22;38372;52.902;6.024;2023-12-29T00:16:43;10.10;99.90
52459;DHT22;38372;52.902;6.024;2023-12-29T00:19:12;10.00;99.90
52459;DHT22;38372;52.902;6.024;2023-12-29T00:21:38;10.10;99.90
52459;DHT22;38372;52.902;6.024;2023-12-29T00:24:04;10.10;99.90
52459;DHT22;38372;52.902;6.024;2023-12-29T00:26:30;10.10;99.90
52459;DHT22;38372;52.902;6.024;2023-12-29T00:28:56;10.00;99.90
52459;DHT22;38372;52.902;6.024;2023-12-29T00:31:22;10.00;99.90
52459;DHT22;38372;52.902;6.024;2023-12-29T00:33:48;10.00;99.90
52459;DHT22;38372;52.902;6.024;2023-12-29T00:36:18;10.00;99.90
52459;DHT22;38372;52.902;6.024;2023-12-29T00:38:44;10.00;99.90
52459;DHT22;38372;52.902;6.024;2023-12-29T00:41:10;10.00;99.90
52459;DHT22;38372;52.902;6.024;2023-12-29T00:43:36;10.00;99.90
52459;DHT22;38372;52.902;6.024;2023-12-29T00:46:03;9.90;99.90
52459;DHT22;38372;52.902;6.024;2023-12-29T00:48:29;9.90;99.90
52459;DHT22;38372;52.902;6.024;2023-12-29T00:50:55;9.90;99.90
52459;DHT22;38372;52.902;6.024;2023-12-29T00:53:21;9.90;99.90
52459;DHT22;38372;52.902;6.024;2023-12-29T00:55:47;9.90;99.90
52459;DHT22;38372;52.902;6.024;2023-12-29T00:58:13;9.90;99.90
52459;DHT22;38372;52.902;6.024;2023-12-29T01:00:38;9.90;99.90
52459;DHT22;38372;52.902;6.024;2023-12-29T01:03:04;9.90;99.90
52459;DHT22;38372;52.902;6.024;2023-12-29T01:05:30;9.90;99.90
52459;DHT22;38372;52.902;6.024;2023-12-29T01:07:56;9.90;99.90
52459;DHT22;38372;52.902;6.024;2023-12-29T01:10:22;9.90;99.90
52459;DHT22;38372;52.902;6.024;2023-12-29T01:12:48;9.80;99.90
52459;DHT22;38372;52.902;6.024;2023-12-29T01:15:14;9.90;99.90
52459;DHT22;38372;52.902;6.024;2023-12-29T01:17:40;9.80;99.90
52459;DHT22;38372;52.902;6.024;2023-12-29T01:20:06;9.80;99.90
52459;DHT22;38372;52.902;6.024;2023-12-29T01:22:33;9.90;99.90
52459;DHT22;38372;52.902;6.024;2023-12-29T01:24:59;9.90;99.90
52459;DHT22;38372;52.902;6.024;2023-12-29T01:27:26;9.90;99.90
52459;DHT22;38372;52.902;6.024;2023-12-29T01:29:52;9.90;99.90
52459;DHT22;38372;52.902;6.024;2023-12-29T01:32:19;9.90;99.90
52459;DHT22;38372;52.902;6.024;2023-12-29T01:34:44;9.90;99.90
52459;DHT22;38372;52.902;6.024;2023-12-29T01:37:10;9.90;99.90
52459;DHT22;38372;52.902;6.024;2023-12-29T01:39:36;9.90;99.90
52459;DHT22;38372;52.902;6.024;2023-12-29T01:42:02;9.90;99.90
52459;DHT22;38372;52.902;6.024;2023-12-29T01:44:28;9.90;99.90
52459;DHT22;38372;52.902;6.024;2023-12-29T01:46:55;9.90;99.90
52459;DHT22;38372;52.902;6.024;2023-12-29T01:49:22;9.90;99.90
52459;DHT22;38372;52.902;6.024;2023-12-29T01:51:54;9.90;99.90
52459;DHT22;38372;52.902;6.024;2023-12-29T01:54:22;9.80;99.90
52459;DHT22;38372;52.902;6.024;2023-12-29T01:56:54;9.80;99.90
52459;DHT22;38372;52.902;6.024;2023-12-29T01:59:22;9.80;99.90
52459;DHT22;38372;52.902;6.024;2023-12-29T02:01:48;9.80;99.90
52459;DHT22;38372;52.902;6.024;2023-12-29T02:04:15;9.80;99.90
52459;DHT22;38372;52.902;6.024;2023-12-29T02:06:42;9.80;99.90
52459;DHT22;38372;52.902;6.024;2023-12-29T02:09:08;9.80;99.90
52459;DHT22;38372;52.902;6.024;2023-12-29T02:11:34;9.90;99.90
52459;DHT22;38372;52.902;6.024;2023-12-29T02:14:01;9.90;99.90
52459;DHT22;38372;52.902;6.024;2023-12-29T02:21:56;10.10;99.90
52459;DHT22;38372;52.902;6.024;2023-12-29T02:24:22;10.10;99.90
52459;DHT22;38372;52.902;6.024;2023-12-29T02:26:52;10.00;99.90
52459;DHT22;38372;52.902;6.024;2023-12-29T02:29:21;10.00;99.90
52459;DHT22;38372;52.902;6.024;2023-12-29T02:31:52;10.00;99.90
52459;DHT22;38372;52.902;6.024;2023-12-29T02:34:22;10.00;99.90
52459;DHT22;38372;52.902;6.024;2023-12-29T02:36:50;9.90;99.90
52459;DHT22;38372;52.902;6.024;2023-12-29T02:39:16;9.90;99.90
52459;DHT22;38372;52.902;6.024;2023-12-29T02:41:42;9.80;99.90
52459;DHT22;38372;52.902;6.024;2023-12-29T02:44:08;9.80;99.90
52459;DHT22;38372;52.902;6.024;2023-12-29T02:46:34;9.70;99.90
52459;DHT22;38372;52.902;6.024;2023-12-29T02:48:59;9.70;99.90
52459;DHT22;38372;52.902;6.024;2023-12-29T02:51:25;9.70;99.90
52459;DHT22;38372;52.902;6.024;2023-12-29T02:53:51;9.70;99.90
52459;DHT22;38372;52.902;6.024;2023-12-29T02:56:17;9.70;99.90
52459;DHT22;38372;52.902;6.024;2023-12-29T02:58:43;9.60;99.90
52459;DHT22;38372;52.902;6.024;2023-12-29T03:01:11;9.60;99.90
52459;DHT22;38372;52.902;6.024;2023-12-29T03:03:37;9.60;99.90
52459;DHT22;38372;52.902;6.024;2023-12-29T03:06:06;9.60;99.90
52459;DHT22;38372;52.902;6.024;2023-12-29T03:08:31;9.60;99.90
52459;DHT22;38372;52.902;6.024;2023-12-29T03:10:58;9.60;99.90
52459;DHT22;38372;52.902;6.024;2023-12-29T03:13:24;9.70;99.90
52459;DHT22;38372;52.902;6.024;2023-12-29T03:15:50;9.70;99.90
52459;DHT22;38372;52.902;6.024;2023-12-29T03:18:16;9.80;99.90
52459;DHT22;38372;52.902;6.024;2023-12-29T03:20:41;9.90;99.90
52459;DHT22;38372;52.902;6.024;2023-12-29T03:23:07;9.90;99.90
52459;DHT22;38372;52.902;6.024;2023-12-29T03:25:33;9.80;99.90
52459;DHT22;38372;52.902;6.024;2023-12-29T03:27:59;9.80;99.90
52459;DHT22;38372;52.902;6.024;2023-12-29T03:30:26;9.80;99.90
52459;DHT22;38372;52.902;6.024;2023-12-29T03:32:51;9.70;99.90
52459;DHT22;38372;52.902;6.024;2023-12-29T03:35:17;9.70;99.90
52459;DHT22;38372;52.902;6.024;2023-12-29T03:37:43;9.70;99.90
52459;DHT22;38372;52.902;6.024;2023-12-29T03:40:09;9.70;99.90
52459;DHT22;38372;52.902;6.024;2023-12-29T03:42:35;9.60;99.90
52459;DHT22;38372;52.902;6.024;2023-12-29T03:45:01;9.60;99.90
52459;DHT22;38372;52.902;6.024;2023-12-29T03:47:27;9.60;99.90
52459;DHT22;38372;52.902;6.024;2023-12-29T03:49:53;9.60;99.90
52459;DHT22;38372;52.902;6.024;2023-12-29T03:52:19;9.70;99.90
52459;DHT22;38372;52.902;6.024;2023-12-29T03:54:45;9.60;99.90
52459;DHT22;38372;52.902;6.024;2023-12-29T03:57:10;9.60;99.90
52459;DHT22;38372;52.902;6.024;2023-12-29T03:59:37;9.60;99.90
52459;DHT22;38372;52.902;6.024;2023-12-29T04:02:03;9.70;99.90
52459;DHT22;38372;52.902;6.024;2023-12-29T04:04:29;9.60;99.90
52459;DHT22;38372;52.902;6.024;2023-12-29T04:06:54;9.60;99.90
52459;DHT22;38372;52.902;6.024;2023-12-29T04:09:21;9.60;99.90
52459;DHT22;38372;52.902;6.024;2023-12-29T04:11:47;9.70;99.90
52459;DHT22;38372;52.902;6.024;2023-12-29T04:14:12;9.60;99.90
52459;DHT22;38372;52.902;6.024;2023-12-29T04:16:39;9.60;99.90
52459;DHT22;38372;52.902;6.024;2023-12-29T04:19:05;9.60;99.90
52459;DHT22;38372;52.902;6.024;2023-12-29T04:21:30;9.70;99.90
52459;DHT22;38372;52.902;6.024;2023-12-29T04:23:56;9.70;99.90
52459;DHT22;38372;52.902;6.024;2023-12-29T04:26:22;9.70;99.90
52459;DHT22;38372;52.902;6.024;2023-12-29T04:28:48;9.70;99.90
52459;DHT22;38372;52.902;6.024;2023-12-29T04:31:13;9.70;99.90
52459;DHT22;38372;52.902;6.024;2023-12-29T04:33:39;9.70;99.90
52459;DHT22;38372;52.902;6.024;2023-12-29T04:36:05;9.70;99.90
52459;DHT22;38372;52.902;6.024;2023-12-29T04:38:31;9.70;99.90
52459;DHT22;38372;52.902;6.024;2023-12-29T04:40:57;9.80;99.90
52459;DHT22;38372;52.902;6.024;2023-12-29T04:43:23;9.80;99.90
52459;DHT22;38372;52.902;6.024;2023-12-29T04:45:48;9.80;99.90
52459;DHT22;38372;52.902;6.024;2023-12-29T04:48:14;9.70;99.90
52459;DHT22;38372;52.902;6.024;2023-12-29T04:50:40;9.70;99.90
52459;DHT22;38372;52.902;6.024;2023-12-29T04:53:06;9.70;99.90
52459;DHT22;38372;52.902;6.024;2023-12-29T04:55:31;9.70;99.90
52459;DHT22;38372;52.902;6.024;2023-12-29T04:57:57;9.70;99.90
52459;DHT22;38372;52.902;6.024;2023-12-29T05:00:23;9.70;99.90
52459;DHT22;38372;52.902;6.024;2023-12-29T05:02:49;9.70;99.90
52459;DHT22;38372;52.902;6.024;2023-12-29T05:05:14;9.70;99.90
52459;DHT22;38372;52.902;6.024;2023-12-29T05:07:40;9.70;99.90
52459;DHT22;38372;52.902;6.024;2023-12-29T05:10:07;9.80;99.90
52459;DHT22;38372;52.902;6.024;2023-12-29T05:12:33;9.80;99.90
52459;DHT22;38372;52.902;6.024;2023-12-29T05:14:58;9.80;99.90
52459;DHT22;38372;52.902;6.024;2023-12-29T05:17:24;9.80;99.90
52459;DHT22;38372;52.902;6.024;2023-12-29T05:19:50;9.80;99.90
52459;DHT22;38372;52.902;6.024;2023-12-29T05:22:16;9.80;99.90
52459;DHT22;38372;52.902;6.024;2023-12-29T05:24:43;9.70;99.90
52459;DHT22;38372;52.902;6.024;2023-12-29T05:27:10;9.70;99.90
52459;DHT22;38372;52.902;6.024;2023-12-29T05:29:36;9.80;99.90
52459;DHT22;38372;52.902;6.024;2023-12-29T05:32:06;9.80;99.90
52459;DHT22;38372;52.902;6.024;2023-12-29T05:34:31;9.70;99.90
52459;DHT22;38372;52.902;6.024;2023-12-29T05:36:57;9.70;99.90
52459;DHT22;38372;52.902;6.024;2023-12-29T05:39:23;9.70;99.90
52459;DHT22;38372;52.902;6.024;2023-12-29T05:41:49;9.70;99.90
52459;DHT22;38372;52.902;6.024;2023-12-29T05:44:15;9.80;99.90
52459;DHT22;38372;52.902;6.024;2023-12-29T05:46:45;9.70;99.90
52459;DHT22;38372;52.902;6.024;2023-12-29T05:49:11;9.80;99.90
52459;DHT22;38372;52.902;6.024;2023-12-29T05:51:37;9.80;99.90
52459;DHT22;38372;52.902;6.024;2023-12-29T05:54:02;9.80;99.90
52459;DHT22;38372;52.902;6.024;2023-12-29T05:56:29;9.80;99.90
52459;DHT22;38372;52.902;6.024;2023-12-29T05:58:54;9.80;99.90
52459;DHT22;38372;52.902;6.024;2023-12-29T06:01:20;9.80;99.90
52459;DHT22;38372;52.902;6.024;2023-12-29T06:03:46;9.80;99.90
52459;DHT22;38372;52.902;6.024;2023-12-29T06:06:12;9.80;99.90
52459;DHT22;38372;52.902;6.024;2023-12-29T06:08:38;9.70;99.90
52459;DHT22;38372;52.902;6.024;2023-12-29T06:11:04;9.70;99.90
52459;DHT22;38372;52.902;6.024;2023-12-29T06:13:29;9.70;99.90
52459;DHT22;38372;52.902;6.024;2023-12-29T06:15:55;9.80;99.90
52459;DHT22;38372;52.902;6.024;2023-12-29T06:18:21;9.70;99.90
52459;DHT22;38372;52.902;6.024;2023-12-29T06:20:47;9.80;99.90
52459;DHT22;38372;52.902;6.024;2023-12-29T06:23:13;9.80;99.90
52459;DHT22;38372;52.902;6.024;2023-12-29T06:25:38;9.80;99.90
52459;DHT22;38372;52.902;6.024;2023-12-29T06:28:07;9.80;99.90
52459;DHT22;38372;52.902;6.024;2023-12-29T06:30:34;9.80;99.90
52459;DHT22;38372;52.902;6.024;2023-12-29T06:32:59;9.80;99.90
52459;DHT22;38372;52.902;6.024;2023-12-29T06:35:25;9.80;99.90
52459;DHT22;38372;52.902;6.024;2023-12-29T06:37:51;9.80;99.90
52459;DHT22;38372;52.902;6.024;2023-12-29T06:40:17;9.90;99.90
52459;DHT22;38372;52.902;6.024;2023-12-29T06:42:43;9.90;99.90
52459;DHT22;38372;52.902;6.024;2023-12-29T06:45:09;9.90;99.90
52459;DHT22;38372;52.902;6.024;2023-12-29T06:47:35;9.90;99.90
52459;DHT22;38372;52.902;6.024;2023-12-29T06:50:01;9.90;99.90
52459;DHT22;38372;52.902;6.024;2023-12-29T06:52:28;9.90;99.90
52459;DHT22;38372;52.902;6.024;2023-12-29T06:55:00;9.90;99.90
52459;DHT22;38372;52.902;6.024;2023-12-29T06:57:26;9.90;99.90
52459;DHT22;38372;52.902;6.024;2023-12-29T06:59:52;9.90;99.90
52459;DHT22;38372;52.902;6.024;2023-12-29T07:02:18;9.90;99.90
52459;DHT22;38372;52.902;6.024;2023-12-29T07:04:44;9.90;99.90
52459;DHT22;38372;52.902;6.024;2023-12-29T07:07:10;9.90;99.90
52459;DHT22;38372;52.902;6.024;2023-12-29T07:09:38;9.80;99.90
52459;DHT22;38372;52.902;6.024;2023-12-29T07:12:05;9.80;99.90
52459;DHT22;38372;52.902;6.024;2023-12-29T07:14:31;9.80;99.90
52459;DHT22;38372;52.902;6.024;2023-12-29T07:16:58;9.80;99.90
52459;DHT22;38372;52.902;6.024;2023-12-29T07:19:24;9.80;99.90
52459;DHT22;38372;52.902;6.024;2023-12-29T07:21:50;9.80;99.90
52459;DHT22;38372;52.902;6.024;2023-12-29T07:24:16;9.80;99.90
52459;DHT22;38372;52.902;6.024;2023-12-29T07:26:41;9.80;99.90
52459;DHT22;38372;52.902;6.024;2023-12-29T07:29:07;9.80;99.90
52459;DHT22;38372;52.902;6.024;2023-12-29T07:31:33;9.90;99.90
52459;DHT22;38372;52.902;6.024;2023-12-29T07:33:59;9.90;99.90
52459;DHT22;38372;52.902;6.024;2023-12-29T07:36:25;9.90;99.90
52459;DHT22;38372;52.902;6.024;2023-12-29T07:38:51;9.90;99.90
52459;DHT22;38372;52.902;6.024;2023-12-29T07:41:17;9.90;99.90
52459;DHT22;38372;52.902;6.024;2023-12-29T07:43:44;9.90;99.90
52459;DHT22;38372;52.902;6.024;2023-12-29T07:46:10;9.90;99.90
52459;DHT22;38372;52.902;6.024;2023-12-29T07:49:13;10.00;99.90
52459;DHT22;38372;52.902;6.024;2023-12-29T07:51:42;10.00;99.90
52459;DHT22;38372;52.902;6.024;2023-12-29T07:54:09;10.10;99.90
52459;DHT22;38372;52.902;6.024;2023-12-29T07:56:35;10.10;99.90
52459;DHT22;38372;52.902;6.024;2023-12-29T07:59:03;10.10;99.90
52459;DHT22;38372;52.902;6.024;2023-12-29T08:01:29;10.00;99.90
52459;DHT22;38372;52.902;6.024;2023-12-29T08:03:54;10.10;99.90
52459;DHT22;38372;52.902;6.024;2023-12-29T08:06:20;10.10;99.90
52459;DHT22;38372;52.902;6.024;2023-12-29T08:08:46;10.10;99.90
52459;DHT22;38372;52.902;6.024;2023-12-29T08:11:16;10.20;99.90
52459;DHT22;38372;52.902;6.024;2023-12-29T08:13:43;10.10;99.90
52459;DHT22;38372;52.902;6.024;2023-12-29T08:16:10;10.10;99.90
52459;DHT22;38372;52.902;6.024;2023-12-29T08:18:36;10.20;99.90
52459;DHT22;38372;52.902;6.024;2023-12-29T08:21:02;10.10;99.90
52459;DHT22;38372;52.902;6.024;2023-12-29T08:23:28;10.10;99.90
52459;DHT22;38372;52.902;6.024;2023-12-29T08:25:56;10.10;99.90
52459;DHT22;38372;52.902;6.024;2023-12-29T08:28:22;10.10;99.90
52459;DHT22;38372;52.902;6.024;2023-12-29T08:30:48;10.10;99.90
52459;DHT22;38372;52.902;6.024;2023-12-29T08:33:14;10.10;99.90
52459;DHT22;38372;52.902;6.024;2023-12-29T08:35:41;10.20;99.90
52459;DHT22;38372;52.902;6.024;2023-12-29T08:38:07;10.10;99.90
52459;DHT22;38372;52.902;6.024;2023-12-29T08:40:32;10.10;99.90
52459;DHT22;38372;52.902;6.024;2023-12-29T08:42:58;10.00;99.90
52459;DHT22;38372;52.902;6.024;2023-12-29T08:45:25;10.00;99.90
52459;DHT22;38372;52.902;6.024;2023-12-29T08:47:51;9.90;99.90
52459;DHT22;38372;52.902;6.024;2023-12-29T08:50:17;9.90;99.90
52459;DHT22;38372;52.902;6.024;2023-12-29T08:52:42;9.90;99.90
52459;DHT22;38372;52.902;6.024;2023-12-29T08:55:08;9.90;99.90
52459;DHT22;38372;52.902;6.024;2023-12-29T08:57:35;9.90;99.90
52459;DHT22;38372;52.902;6.024;2023-12-29T09:00:01;9.90;99.90
52459;DHT22;38372;52.902;6.024;2023-12-29T09:02:27;9.90;99.90
52459;DHT22;38372;52.902;6.024;2023-12-29T09:04:53;9.80;99.90
52459;DHT22;38372;52.902;6.024;2023-12-29T09:07:18;9.80;99.90
52459;DHT22;38372;52.902;6.024;2023-12-29T09:09:44;9.80;99.90
52459;DHT22;38372;52.902;6.024;2023-12-29T09:12:10;9.70;99.90
52459;DHT22;38372;52.902;6.024;2023-12-29T09:14:36;9.80;99.90
52459;DHT22;38372;52.902;6.024;2023-12-29T09:17:02;9.80;99.90
52459;DHT22;38372;52.902;6.024;2023-12-29T09:19:27;9.90;99.90
52459;DHT22;38372;52.902;6.024;2023-12-29T09:21:53;9.90;99.90
52459;DHT22;38372;52.902;6.024;2023-12-29T09:24:19;10.00;99.90
52459;DHT22;38372;52.902;6.024;2023-12-29T09:26:45;10.00;99.90
52459;DHT22;38372;52.902;6.024;2023-12-29T09:29:10;10.10;99.90
52459;DHT22;38372;52.902;6.024;2023-12-29T09:31:36;10.10;99.90
52459;DHT22;38372;52.902;6.024;2023-12-29T09:34:02;10.10;99.90
52459;DHT22;38372;52.902;6.024;2023-12-29T09:36:28;10.20;99.90
52459;DHT22;38372;52.902;6.024;2023-12-29T09:38:54;10.20;99.90
52459;DHT22;38372;52.902;6.024;2023-12-29T09:41:20;10.20;99.90
52459;DHT22;38372;52.902;6.024;2023-12-29T09:43:49;10.30;99.90
52459;DHT22;38372;52.902;6.024;2023-12-29T09:46:19;10.30;99.90
52459;DHT22;38372;52.902;6.024;2023-12-29T09:48:47;10.30;99.90
52459;DHT22;38372;52.902;6.024;2023-12-29T09:51:15;10.30;99.90
52459;DHT22;38372;52.902;6.024;2023-12-29T09:53:41;10.30;99.90
52459;DHT22;38372;52.902;6.024;2023-12-29T09:56:10;10.30;99.90
52459;DHT22;38372;52.902;6.024;2023-12-29T09:58:36;10.20;99.90
52459;DHT22;38372;52.902;6.024;2023-12-29T10:01:04;10.30;99.90
52459;DHT22;38372;52.902;6.024;2023-12-29T10:03:33;10.30;99.90
52459;DHT22;38372;52.902;6.024;2023-12-29T10:06:06;10.20;99.90
52459;DHT22;38372;52.902;6.024;2023-12-29T10:08:34;10.20;99.90
52459;DHT22;38372;52.902;6.024;2023-12-29T10:11:01;10.20;99.90
52459;DHT22;38372;52.902;6.024;2023-12-29T10:13:29;10.20;99.90
52459;DHT22;38372;52.902;6.024;2023-12-29T10:16:03;10.20;99.90
52459;DHT22;38372;52.902;6.024;2023-12-29T10:18:42;10.20;99.90
52459;DHT22;38372;52.902;6.024;2023-12-29T10:21:20;10.20;99.90
52459;DHT22;38372;52.902;6.024;2023-12-29T10:26:26;10.30;99.90
52459;DHT22;38372;52.902;6.024;2023-12-29T10:28:52;10.30;99.90
52459;DHT22;38372;52.902;6.024;2023-12-29T10:31:18;10.40;99.90
52459;DHT22;38372;52.902;6.024;2023-12-29T10:33:44;10.50;99.90
52459;DHT22;38372;52.902;6.024;2023-12-29T10:36:15;10.60;99.90
52459;DHT22;38372;52.902;6.024;2023-12-29T10:38:41;10.60;99.90
52459;DHT22;38372;52.902;6.024;2023-12-29T10:41:18;10.70;99.90
52459;DHT22;38372;52.902;6.024;2023-12-29T10:43:46;10.80;99.90
52459;DHT22;38372;52.902;6.024;2023-12-29T10:46:18;10.80;99.90
52459;DHT22;38372;52.902;6.024;2023-12-29T10:48:44;10.90;99.90
52459;DHT22;38372;52.902;6.024;2023-12-29T10:51:11;11.00;99.90
52459;DHT22;38372;52.902;6.024;2023-12-29T10:53:40;11.10;99.90
52459;DHT22;38372;52.902;6.024;2023-12-29T10:56:19;11.20;99.90
52459;DHT22;38372;52.902;6.024;2023-12-29T10:58:58;11.30;99.90
52459;DHT22;38372;52.902;6.024;2023-12-29T11:01:25;11.10;99.90
52459;DHT22;38372;52.902;6.024;2023-12-29T11:03:58;11.10;99.90
52459;DHT22;38372;52.902;6.024;2023-12-29T11:06:26;10.90;99.90
52459;DHT22;38372;52.902;6.024;2023-12-29T11:08:53;10.80;99.90
52459;DHT22;38372;52.902;6.024;2023-12-29T11:11:19;10.70;99.90
52459;DHT22;38372;52.902;6.024;2023-12-29T11:13:46;10.60;99.90
52459;DHT22;38372;52.902;6.024;2023-12-29T11:16:13;10.50;99.90
52459;DHT22;38372;52.902;6.024;2023-12-29T11:18:41;10.40;99.90
52459;DHT22;38372;52.902;6.024;2023-12-29T11:21:08;10.30;99.90
52459;DHT22;38372;52.902;6.024;2023-12-29T11:23:35;10.30;99.90
52459;DHT22;38372;52.902;6.024;2023-12-29T11:26:03;10.20;99.90
52459;DHT22;38372;52.902;6.024;2023-12-29T11:28:29;10.20;99.90
52459;DHT22;38372;52.902;6.024;2023-12-29T11:30:55;10.10;99.90
52459;DHT22;38372;52.902;6.024;2023-12-29T11:33:29;10.10;99.90
52459;DHT22;38372;52.902;6.024;2023-12-29T11:36:15;10.10;99.90
52459;DHT22;38372;52.902;6.024;2023-12-29T11:41:38;10.00;99.90
52459;DHT22;38372;52.902;6.024;2023-12-29T11:44:06;10.00;99.90
52459;DHT22;38372;52.902;6.024;2023-12-29T11:46:37;10.00;99.90
52459;DHT22;38372;52.902;6.024;2023-12-29T11:49:03;10.00;99.90
52459;DHT22;38372;52.902;6.024;2023-12-29T11:54:07;9.90;99.90
52459;DHT22;38372;52.902;6.024;2023-12-29T11:56:38;9.90;99.90
52459;DHT22;38372;52.902;6.024;2023-12-29T11:59:24;9.90;99.90
52459;DHT22;38372;52.902;6.024;2023-12-29T12:01:52;9.80;99.90
52459;DHT22;38372;52.902;6.024;2023-12-29T12:07:01;9.80;99.90
52459;DHT22;38372;52.902;6.024;2023-12-29T12:09:27;9.80;99.90
52459;DHT22;38372;52.902;6.024;2023-12-29T12:11:53;9.80;99.90
52459;DHT22;38372;52.902;6.024;2023-12-29T12:14:51;9.80;99.90
52459;DHT22;38372;52.902;6.024;2023-12-29T12:17:28;9.80;99.90
52459;DHT22;38372;52.902;6.024;2023-12-29T12:20:04;9.80;99.90
52459;DHT22;38372;52.902;6.024;2023-12-29T12:22:32;9.80;99.90
52459;DHT22;38372;52.902;6.024;2023-12-29T12:24:59;9.80;99.90
52459;DHT22;38372;52.902;6.024;2023-12-29T12:27:28;9.80;99.90
52459;DHT22;38372;52.902;6.024;2023-12-29T12:29:56;9.70;99.90
52459;DHT22;38372;52.902;6.024;2023-12-29T12:32:28;9.80;99.90
52459;DHT22;38372;52.902;6.024;2023-12-29T12:34:55;9.80;99.90
52459;DHT22;38372;52.902;6.024;2023-12-29T12:37:25;9.80;99.90
52459;DHT22;38372;52.902;6.024;2023-12-29T12:39:51;9.80;99.90
52459;DHT22;38372;52.902;6.024;2023-12-29T12:42:19;9.90;99.90
52459;DHT22;38372;52.902;6.024;2023-12-29T12:44:56;9.90;99.90
52459;DHT22;38372;52.902;6.024;2023-12-29T12:47:33;9.90;99.90
52459;DHT22;38372;52.902;6.024;2023-12-29T12:50:00;10.00;99.90
52459;DHT22;38372;52.902;6.024;2023-12-29T12:52:31;10.00;99.90
52459;DHT22;38372;52.902;6.024;2023-12-29T12:54:57;10.10;99.90
52459;DHT22;38372;52.902;6.024;2023-12-29T12:57:24;10.10;99.90
52459;DHT22;38372;52.902;6.024;2023-12-29T12:59:50;10.10;99.90
52459;DHT22;38372;52.902;6.024;2023-12-29T13:02:18;10.10;99.90
52459;DHT22;38372;52.902;6.024;2023-12-29T13:04:45;10.10;99.90
52459;DHT22;38372;52.902;6.024;2023-12-29T13:07:15;10.10;99.90
52459;DHT22;38372;52.902;6.024;2023-12-29T13:09:41;10.00;99.90
52459;DHT22;38372;52.902;6.024;2023-12-29T13:12:12;9.90;99.90
52459;DHT22;38372;52.902;6.024;2023-12-29T13:14:38;9.80;99.90
52459;DHT22;38372;52.902;6.024;2023-12-29T13:17:14;9.70;99.90
52459;DHT22;38372;52.902;6.024;2023-12-29T13:19:42;9.70;99.90
52459;DHT22;38372;52.902;6.024;2023-12-29T13:22:11;9.60;99.90
52459;DHT22;38372;52.902;6.024;2023-12-29T13:24:45;9.60;99.90
52459;DHT22;38372;52.902;6.024;2023-12-29T13:27:11;9.50;99.90
52459;DHT22;38372;52.902;6.024;2023-12-29T13:29:38;9.50;99.90
52459;DHT22;38372;52.902;6.024;2023-12-29T13:35:02;9.50;99.90
52459;DHT22;38372;52.902;6.024;2023-12-29T13:40:13;9.40;99.90
52459;DHT22;38372;52.902;6.024;2023-12-29T13:42:41;9.40;99.90
52459;DHT22;38372;52.902;6.024;2023-12-29T13:45:10;9.40;99.90
52459;DHT22;38372;52.902;6.024;2023-12-29T13:47:38;9.40;99.90
52459;DHT22;38372;52.902;6.024;2023-12-29T13:50:04;9.30;99.90
52459;DHT22;38372;52.902;6.024;2023-12-29T13:52:32;9.30;99.90
52459;DHT22;38372;52.902;6.024;2023-12-29T13:54:57;9.30;99.90
52459;DHT22;38372;52.902;6.024;2023-12-29T13:57:33;9.30;99.90
52459;DHT22;38372;52.902;6.024;2023-12-29T14:02:44;9.20;99.90
52459;DHT22;38372;52.902;6.024;2023-12-29T14:07:59;9.20;99.90
52459;DHT22;38372;52.902;6.024;2023-12-29T14:10:33;9.20;99.90
52459;DHT22;38372;52.902;6.024;2023-12-29T14:13:12;9.20;99.90
52459;DHT22;38372;52.902;6.024;2023-12-29T14:15:40;9.20;99.90
52459;DHT22;38372;52.902;6.024;2023-12-29T14:20:38;9.10;99.90
52459;DHT22;38372;52.902;6.024;2023-12-29T14:23:07;9.10;99.90
52459;DHT22;38372;52.902;6.024;2023-12-29T14:25:37;9.10;99.90
52459;DHT22;38372;52.902;6.024;2023-12-29T14:28:03;9.10;99.90
52459;DHT22;38372;52.902;6.024;2023-12-29T14:30:30;9.00;99.90
52459;DHT22;38372;52.902;6.024;2023-12-29T14:32:58;9.00;99.90
52459;DHT22;38372;52.902;6.024;2023-12-29T14:35:24;9.00;99.90
52459;DHT22;38372;52.902;6.024;2023-12-29T14:37:49;8.90;99.90
52459;DHT22;38372;52.902;6.024;2023-12-29T14:40:15;8.90;99.90
52459;DHT22;38372;52.902;6.024;2023-12-29T14:42:41;8.90;99.90
52459;DHT22;38372;52.902;6.024;2023-12-29T14:45:08;8.90;99.90
52459;DHT22;38372;52.902;6.024;2023-12-29T14:47:34;8.90;99.90
52459;DHT22;38372;52.902;6.024;2023-12-29T14:50:00;8.90;99.90
52459;DHT22;38372;52.902;6.024;2023-12-29T14:52:27;8.90;99.90
52459;DHT22;38372;52.902;6.024;2023-12-29T14:54:53;9.00;99.90
52459;DHT22;38372;52.902;6.024;2023-12-29T14:57:18;9.00;99.90
52459;DHT22;38372;52.902;6.024;2023-12-29T14:59:44;9.00;99.90
52459;DHT22;38372;52.902;6.024;2023-12-29T15:02:10;9.00;99.90
52459;DHT22;38372;52.902;6.024;2023-12-29T15:04:36;8.90;99.90
52459;DHT22;38372;52.902;6.024;2023-12-29T15:07:02;8.90;99.90
52459;DHT22;38372;52.902;6.024;2023-12-29T15:09:28;8.90;99.90
52459;DHT22;38372;52.902;6.024;2023-12-29T15:11:56;8.90;99.90
52459;DHT22;38372;52.902;6.024;2023-12-29T15:14:22;8.90;99.90
52459;DHT22;38372;52.902;6.024;2023-12-29T15:16:47;8.90;99.90
52459;DHT22;38372;52.902;6.024;2023-12-29T15:19:13;8.80;99.90
52459;DHT22;38372;52.902;6.024;2023-12-29T15:21:39;8.80;99.90
52459;DHT22;38372;52.902;6.024;2023-12-29T15:24:05;8.80;99.90
52459;DHT22;38372;52.902;6.024;2023-12-29T15:26:31;8.80;99.90
52459;DHT22;38372;52.902;6.024;2023-12-29T15:28:57;8.80;99.90
52459;DHT22;38372;52.902;6.024;2023-12-29T15:31:23;8.80;99.90
52459;DHT22;38372;52.902;6.024;2023-12-29T15:33:50;8.80;99.90
52459;DHT22;38372;52.902;6.024;2023-12-29T15:36:16;8.80;99.90
52459;DHT22;38372;52.902;6.024;2023-12-29T15:38:46;8.90;99.90
52459;DHT22;38372;52.902;6.024;2023-12-29T15:41:12;9.00;99.90
52459;DHT22;38372;52.902;6.024;2023-12-29T15:43:38;9.00;99.90
52459;DHT22;38372;52.902;6.024;2023-12-29T15:46:18;9.00;99.90
52459;DHT22;38372;52.902;6.024;2023-12-29T15:48:48;9.00;99.90
52459;DHT22;38372;52.902;6.024;2023-12-29T15:51:14;9.00;99.90
52459;DHT22;38372;52.902;6.024;2023-12-29T15:53:40;9.00;99.90
52459;DHT22;38372;52.902;6.024;2023-12-29T15:56:06;9.10;99.90
52459;DHT22;38372;52.902;6.024;2023-12-29T15:58:32;9.00;99.90
52459;DHT22;38372;52.902;6.024;2023-12-29T16:00:58;9.00;99.90
52459;DHT22;38372;52.902;6.024;2023-12-29T16:03:42;9.00;99.90
52459;DHT22;38372;52.902;6.024;2023-12-29T16:06:18;9.10;99.90
52459;DHT22;38372;52.902;6.024;2023-12-29T16:08:44;9.00;99.90
52459;DHT22;38372;52.902;6.024;2023-12-29T16:11:20;9.10;99.90
52459;DHT22;38372;52.902;6.024;2023-12-29T16:13:46;9.00;99.90